Time;durP1;ratioP1;P1;durP2;ratioP2;P2;SDS_P1;SDS_P2;PMS_P1;PMS_P2;Temp;Humidity;BMP_temperature;BMP_pressure;BME280_temperature;BME280_humidity;BME280_pressure;Samples;Min_cycle;Max_cycle;Signal;HPM_P1;HPM_P2
2021/10/22 00:02:22;;;;;;;24.08;14.48;;;;;;;7.49;100.00;93349.69;5039008;28;20048;-85
2021/10/22 00:04:51;;;;;;;23.92;16.00;;;;;;;7.43;100.00;93348.69;5039982;28;20470;-85
2021/10/22 00:07:17;;;;;;;23.20;15.45;;;;;;;7.22;100.00;93334.97;5040501;28;20785;-84
2021/10/22 00:09:45;;;;;;;25.25;16.02;;;;;;;7.32;100.00;93344.09;5038810;28;20046;-83
2021/10/22 00:12:12;;;;;;;21.88;14.80;;;;;;;7.32;100.00;93344.88;5041362;28;20110;-84
2021/10/22 00:14:42;;;;;;;24.65;14.80;;;;;;;7.27;100.00;93351.53;5040977;28;20053;-84
2021/10/22 00:17:10;;;;;;;23.40;14.65;;;;;;;7.20;100.00;93357.38;5041335;28;20079;-86
2021/10/22 00:19:37;;;;;;;22.33;14.68;;;;;;;7.12;100.00;93354.94;5040862;28;20044;-86
2021/10/22 00:22:05;;;;;;;21.05;13.82;;;;;;;7.09;100.00;93355.31;5048060;28;20491;-86
2021/10/22 00:24:32;;;;;;;22.70;15.48;;;;;;;7.15;100.00;93351.22;5038419;28;20061;-86
2021/10/22 00:26:58;;;;;;;28.65;18.33;;;;;;;7.05;100.00;93349.00;5033609;28;20049;-86
2021/10/22 00:29:25;;;;;;;30.60;19.35;;;;;;;6.99;100.00;93362.50;5033589;28;20500;-86
2021/10/22 00:31:52;;;;;;;20.70;14.15;;;;;;;7.01;100.00;93352.88;5033607;28;20053;-84
2021/10/22 00:34:19;;;;;;;21.40;14.50;;;;;;;7.00;100.00;93351.31;5033507;28;20538;-83
2021/10/22 00:36:46;;;;;;;22.48;14.13;;;;;;;7.00;100.00;93341.88;5033361;28;20412;-86
2021/10/22 00:39:14;;;;;;;23.08;14.88;;;;;;;6.94;100.00;93348.50;5033310;28;20064;-86
2021/10/22 00:41:42;;;;;;;21.48;15.10;;;;;;;6.60;100.00;93313.44;5033278;28;20092;-86
2021/10/22 00:44:09;;;;;;;20.45;14.07;;;;;;;6.88;100.00;93361.22;5033453;28;20049;-85
2021/10/22 00:46:38;;;;;;;22.08;15.25;;;;;;;6.60;100.00;93362.72;5033363;28;20405;-86
2021/10/22 00:49:07;;;;;;;25.27;16.00;;;;;;;6.53;100.00;93365.22;5033347;28;20042;-86
2021/10/22 00:51:34;;;;;;;26.63;17.52;;;;;;;6.16;100.00;93349.13;5033664;28;20049;-85
2021/10/22 00:54:01;;;;;;;25.95;16.38;;;;;;;6.20;100.00;93362.31;5033371;28;20088;-85
2021/10/22 00:56:29;;;;;;;25.83;16.05;;;;;;;6.32;100.00;93350.66;5033193;28;20056;-85
2021/10/22 00:58:57;;;;;;;23.00;14.80;;;;;;;6.35;100.00;93352.84;5033920;28;20111;-85
2021/10/22 01:01:24;;;;;;;21.08;14.20;;;;;;;6.33;100.00;93356.53;5034157;28;20397;-86
2021/10/22 01:03:51;;;;;;;21.08;14.05;;;;;;;6.35;100.00;93354.63;5032959;28;20494;-85
2021/10/22 01:06:18;;;;;;;19.90;14.45;;;;;;;6.33;100.00;93357.34;5035390;28;20176;-86
2021/10/22 01:08:45;;;;;;;25.40;16.52;;;;;;;6.40;100.00;93365.84;5032905;28;20500;-86
2021/10/22 01:11:11;;;;;;;29.50;19.08;;;;;;;6.34;100.00;93368.34;5033221;28;20045;-86
2021/10/22 01:13:40;;;;;;;26.92;18.77;;;;;;;6.37;100.00;93367.97;5032747;28;20050;-86
2021/10/22 01:16:06;;;;;;;24.80;17.52;;;;;;;6.34;100.00;93373.44;5032871;28;20053;-86
2021/10/22 01:18:33;;;;;;;29.85;20.48;;;;;;;6.35;100.00;93377.56;5032686;28;20042;-86
2021/10/22 01:21:02;;;;;;;30.20;22.17;;;;;;;6.34;100.00;93374.22;5032552;28;20045;-85
2021/10/22 01:23:29;;;;;;;27.48;19.77;;;;;;;6.07;100.00;93333.09;5033223;28;20127;-86
2021/10/22 01:25:56;;;;;;;25.08;18.45;;;;;;;6.28;100.00;93365.53;5032602;28;20083;-85
2021/10/22 01:28:23;;;;;;;26.67;17.77;;;;;;;6.26;100.00;93370.00;5032957;28;20045;-85
2021/10/22 01:30:50;;;;;;;26.38;17.63;;;;;;;6.28;100.00;93372.38;5032386;28;20506;-85
2021/10/22 01:33:18;;;;;;;27.60;18.33;;;;;;;6.10;100.00;93337.84;5032361;28;20397;-85
2021/10/22 01:35:45;;;;;;;26.15;18.25;;;;;;;6.29;100.00;93363.75;5032603;28;20061;-85
2021/10/22 01:38:15;;;;;;;24.48;16.73;;;;;;;6.22;100.00;93368.00;5032235;28;20065;-85
2021/10/22 01:40:42;;;;;;;24.98;17.33;;;;;;;6.26;100.00;93376.88;5032285;28;20503;-85
2021/10/22 01:43:08;;;;;;;29.15;19.40;;;;;;;6.18;100.00;93362.47;5031777;28;20053;-85
2021/10/22 01:45:35;;;;;;;30.45;19.45;;;;;;;6.18;100.00;93361.66;5032292;28;20057;-85
2021/10/22 01:48:03;;;;;;;27.45;18.33;;;;;;;5.98;100.00;93332.38;5032041;28;20124;-85
2021/10/22 01:50:30;;;;;;;25.30;17.73;;;;;;;5.95;100.00;93337.84;5032731;28;20045;-85
2021/10/22 01:52:57;;;;;;;25.75;16.67;;;;;;;6.10;100.00;93365.09;5032681;28;20046;-85
2021/10/22 01:55:25;;;;;;;23.58;14.65;;;;;;;6.12;100.00;93356.31;5032033;28;20057;-85
2021/10/22 01:57:52;;;;;;;22.13;14.30;;;;;;;6.05;100.00;93360.56;5032037;28;20049;-85
2021/10/22 02:00:19;;;;;;;20.67;14.60;;;;;;;5.97;100.00;93355.53;5031809;28;20059;-85
2021/10/22 02:02:46;;;;;;;24.25;16.65;;;;;;;5.93;100.00;93362.72;5031841;28;20469;-85
2021/10/22 02:05:12;;;;;;;24.60;15.43;;;;;;;5.90;100.00;93355.44;5031774;28;20053;-85
2021/10/22 02:07:39;;;;;;;22.48;15.80;;;;;;;5.91;100.00;93363.88;5031750;28;20064;-85
2021/10/22 02:10:07;;;;;;;23.33;14.13;;;;;;;5.81;100.00;93364.94;5031723;28;20042;-85
2021/10/22 02:12:35;;;;;;;21.63;14.18;;;;;;;5.83;100.00;93357.13;5035075;28;20042;-85
2021/10/22 02:15:02;;;;;;;23.20;14.45;;;;;;;5.80;100.00;93362.56;5031963;28;20053;-86
2021/10/22 02:17:29;;;;;;;20.60;14.40;;;;;;;5.75;100.00;93358.00;5033146;28;20054;-86
2021/10/22 02:19:56;;;;;;;22.58;15.18;;;;;;;5.60;100.00;93371.50;5031742;28;20052;-86
2021/10/22 02:22:23;;;;;;;24.80;16.83;;;;;;;5.55;100.00;93365.38;5031596;28;20053;-86
2021/10/22 02:24:51;;;;;;;25.50;16.38;;;;;;;5.37;100.00;93340.22;5032944;28;20046;-86
2021/10/22 02:27:18;;;;;;;25.02;17.67;;;;;;;5.40;100.00;93371.22;5032157;28;20054;-86
2021/10/22 02:29:46;;;;;;;24.08;17.05;;;;;;;5.41;100.00;93372.03;5031711;28;20103;-85
2021/10/22 02:32:13;;;;;;;27.15;19.00;;;;;;;5.44;100.00;93359.75;5031290;28;20057;-85
2021/10/22 02:34:40;;;;;;;25.08;18.23;;;;;;;5.50;100.00;93373.53;5031256;28;20057;-85
2021/10/22 02:37:07;;;;;;;24.48;16.77;;;;;;;5.50;100.00;93378.63;5031299;28;20546;-85
2021/10/22 02:39:35;;;;;;;25.92;17.45;;;;;;;5.45;100.00;93378.34;5031185;28;20534;-86
2021/10/22 02:42:02;;;;;;;32.75;21.67;;;;;;;5.42;100.00;93381.25;5031031;28;20045;-86
2021/10/22 02:44:29;;;;;;;30.95;18.73;;;;;;;5.42;100.00;93384.56;5031064;28;20606;-86
2021/10/22 02:46:58;;;;;;;25.00;16.60;;;;;;;5.33;100.00;93373.66;5031272;28;20049;-86
2021/10/22 02:49:24;;;;;;;26.85;17.88;;;;;;;5.08;100.00;93391.72;5031372;28;20068;-85
2021/10/22 02:51:52;;;;;;;25.65;17.10;;;;;;;4.88;100.00;93395.69;5031112;28;20095;-86
2021/10/22 02:54:19;;;;;;;25.65;16.60;;;;;;;4.97;100.00;93399.75;5030056;28;20050;-86
2021/10/22 07:54:52;;;;;;;42.60;23.10;;;;;;;10.28;100.00;93544.00;5033560;22;20532;-77
2021/10/22 07:57:23;;;;;;;40.70;24.27;;;;;;;10.66;100.00;93542.56;4986264;28;20045;-78
2021/10/22 07:59:50;;;;;;;42.50;25.20;;;;;;;10.91;100.00;93554.78;4989426;28;20054;-77
2021/10/22 08:02:17;;;;;;;36.75;22.13;;;;;;;11.14;100.00;93547.56;4988977;28;20042;-77
2021/10/22 08:04:46;;;;;;;35.08;21.17;;;;;;;11.33;100.00;93551.84;4985803;28;20425;-77
2021/10/22 08:07:15;;;;;;;33.28;21.27;;;;;;;11.14;100.00;93556.06;4987226;28;20058;-77
2021/10/22 08:09:42;;;;;;;29.73;18.63;;;;;;;11.24;100.00;93553.06;4987976;28;20047;-77
2021/10/22 08:12:09;;;;;;;32.10;18.45;;;;;;;11.34;100.00;93540.56;4988825;28;20046;-77
2021/10/22 08:24:43;;;;;;;28.52;18.88;;;;;;;11.91;100.00;93531.31;4982609;28;20092;-77
2021/10/22 08:27:09;;;;;;;32.35;18.70;;;;;;;12.10;100.00;93549.41;4988612;28;20049;-77
2021/10/22 08:29:36;;;;;;;34.97;20.80;;;;;;;12.11;100.00;93541.47;4988638;28;20177;-77
2021/10/22 08:32:04;;;;;;;37.50;22.35;;;;;;;12.11;100.00;93532.94;4988171;28;20054;-77
2021/10/22 08:34:30;;;;;;;37.00;20.20;;;;;;;12.20;100.00;93543.78;4988448;28;20046;-77
2021/10/22 08:36:57;;;;;;;43.72;22.05;;;;;;;12.32;100.00;93543.88;4989229;28;20058;-77
2021/10/22 08:39:24;;;;;;;38.22;21.30;;;;;;;12.45;99.79;93542.97;4988034;28;20509;-77
2021/10/22 08:41:54;;;;;;;33.25;20.10;;;;;;;12.67;100.00;93539.00;4988565;28;20046;-77
2021/10/22 08:44:22;;;;;;;34.92;19.05;;;;;;;12.86;99.38;93536.41;4988063;28;20093;-77
2021/10/22 08:46:51;;;;;;;34.70;20.40;;;;;;;13.05;98.20;93537.19;4988222;28;20050;-78
2021/10/22 08:49:18;;;;;;;38.45;19.27;;;;;;;13.24;95.51;93529.41;4987969;28;20054;-77
2021/10/22 08:51:44;;;;;;;35.08;20.50;;;;;;;13.43;97.38;93535.31;4985983;28;20058;-77
2021/10/22 08:54:12;;;;;;;33.45;18.75;;;;;;;13.32;95.72;93499.94;4978492;28;20050;-78
2021/10/22 08:56:41;;;;;;;28.42;18.23;;;;;;;13.81;97.39;93538.63;4978657;28;20109;-78
2021/10/22 08:59:11;;;;;;;26.92;16.65;;;;;;;13.98;91.20;93540.56;4978290;28;20096;-78
2021/10/22 09:02:12;;;;;;;29.33;17.17;;;;;;;14.05;93.77;93538.66;4978104;28;20062;-78
2021/10/22 09:04:39;;;;;;;27.38;16.17;;;;;;;14.21;90.28;93531.25;4977907;28;20130;-78
2021/10/22 09:07:07;;;;;;;29.73;16.42;;;;;;;14.48;91.95;93536.00;4978104;28;20113;-78
2021/10/22 09:09:34;;;;;;;28.20;16.73;;;;;;;14.75;90.72;93531.16;4978252;28;20046;-78
2021/10/22 09:12:01;;;;;;;26.77;15.57;;;;;;;14.95;91.77;93523.00;4977895;28;20134;-78
2021/10/22 09:14:29;;;;;;;28.73;16.25;;;;;;;15.33;86.68;93535.63;4978017;28;20180;-78
2021/10/22 09:16:56;;;;;;;27.05;15.48;;;;;;;15.36;84.59;93537.72;4977677;28;20047;-78
2021/10/22 09:19:35;;;;;;;25.70;15.65;;;;;;;15.36;85.64;93530.75;4977765;28;20061;-78
2021/10/22 09:22:24;;;;;;;31.98;15.57;;;;;;;15.29;84.74;93531.91;4977887;28;20051;-78
2021/10/22 09:24:52;;;;;;;26.67;15.32;;;;;;;15.33;87.15;93530.44;4977412;28;20046;-78
2021/10/22 09:27:41;;;;;;;29.88;16.25;;;;;;;15.34;86.13;93527.63;4977736;28;20434;-77
2021/10/22 09:30:12;;;;;;;25.40;15.23;;;;;;;15.41;84.50;93522.31;4977849;28;20051;-77
2021/10/22 09:32:48;;;;;;;31.33;16.83;;;;;;;15.36;84.80;93486.78;4977695;28;20054;-77
2021/10/22 09:35:19;;;;;;;28.50;16.83;;;;;;;15.75;85.08;93517.19;4977656;28;20047;-77
2021/10/22 09:37:47;;;;;;;24.67;14.30;;;;;;;15.86;84.90;93519.94;4977254;28;20516;-77
2021/10/22 09:40:14;;;;;;;26.00;14.40;;;;;;;15.98;85.96;93502.53;4977371;28;20078;-78
2021/10/22 09:42:49;;;;;;;21.52;11.32;;;;;;;16.20;82.24;93511.41;4977520;28;20046;-78
2021/10/22 09:45:27;;;;;;;26.40;13.60;;;;;;;16.48;87.36;93514.91;4977163;28;20050;-78
2021/10/22 09:47:54;;;;;;;22.65;12.02;;;;;;;16.71;83.42;93508.72;4977662;28;20046;-78
2021/10/22 09:50:27;;;;;;;19.60;11.23;;;;;;;16.95;82.35;93514.47;4977631;28;20042;-78
2021/10/22 09:52:54;;;;;;;20.02;10.32;;;;;;;17.11;81.05;93512.09;4977023;28;20682;-78
2021/10/22 09:55:22;;;;;;;16.92;10.10;;;;;;;17.29;78.36;93513.59;4977110;28;20522;-78
2021/10/22 09:58:05;;;;;;;15.73;9.30;;;;;;;17.45;83.65;93498.16;4977288;28;20093;-78
2021/10/22 10:00:36;;;;;;;9.60;6.90;;;;;;;17.56;80.30;93493.84;4977202;28;20062;-78
2021/10/22 10:03:04;;;;;;;13.82;7.30;;;;;;;17.59;79.63;93486.34;4976711;28;20051;-78
2021/10/22 10:05:31;;;;;;;15.13;7.85;;;;;;;17.68;72.56;93502.25;4977006;28;20065;-78
2021/10/22 10:08:00;;;;;;;15.20;7.70;;;;;;;17.83;76.33;93493.78;4977068;28;20647;-78
2021/10/22 10:10:27;;;;;;;14.02;6.70;;;;;;;18.07;76.97;93492.72;4976342;28;20042;-78
2021/10/22 10:12:54;;;;;;;14.27;7.50;;;;;;;18.23;74.30;93483.97;4977164;28;20053;-78
2021/10/22 10:15:21;;;;;;;8.75;5.72;;;;;;;18.38;76.66;93495.53;4977626;28;20561;-78
2021/10/22 10:17:51;;;;;;;9.82;5.88;;;;;;;18.30;70.30;93487.13;4978313;28;20051;-78
2021/10/22 10:20:22;;;;;;;9.07;5.93;;;;;;;18.44;73.54;93494.53;4976774;28;20066;-78
2021/10/22 10:22:50;;;;;;;10.10;5.22;;;;;;;18.34;69.89;93484.06;4976532;28;20043;-78
2021/10/22 10:25:20;;;;;;;9.38;5.20;;;;;;;18.21;74.01;93485.25;4976397;28;20517;-78
2021/10/22 10:27:48;;;;;;;7.80;5.28;;;;;;;18.36;74.76;93484.56;4976593;28;20039;-78
2021/10/22 10:30:26;;;;;;;9.32;5.20;;;;;;;18.38;70.88;93464.31;4976402;28;20552;-78
2021/10/22 10:32:54;;;;;;;11.38;5.78;;;;;;;18.69;75.76;93473.06;4973192;28;20253;-78
2021/10/22 10:35:21;;;;;;;12.10;6.05;;;;;;;18.70;74.21;93443.38;4974589;28;20050;-78
2021/10/22 10:37:49;;;;;;;10.35;4.85;;;;;;;19.01;73.54;93463.53;4975724;28;20058;-78
2021/10/22 10:40:23;;;;;;;11.55;5.03;;;;;;;19.08;66.62;93463.31;4976373;28;20043;-78
2021/10/22 10:42:52;;;;;;;11.27;5.47;;;;;;;19.21;70.19;93428.22;4976246;28;20058;-79
2021/10/22 10:45:45;;;;;;;11.25;5.88;;;;;;;19.55;69.73;93453.78;4976661;28;20047;-79
2021/10/22 10:48:18;;;;;;;9.82;5.03;;;;;;;19.73;70.87;93454.31;4976816;28;20054;-78
2021/10/22 10:50:50;;;;;;;9.38;4.82;;;;;;;19.74;64.69;93454.03;4976151;28;20046;-78
2021/10/22 10:53:30;;;;;;;6.70;4.00;;;;;;;19.60;64.13;93432.94;4976165;28;20457;-78
2021/10/22 10:55:57;;;;;;;7.43;3.25;;;;;;;18.58;65.98;93429.81;4975982;28;20054;-78
2021/10/22 10:58:24;;;;;;;6.57;3.65;;;;;;;18.79;66.65;93415.06;4975812;28;20090;-78
2021/10/22 11:00:54;;;;;;;3.88;2.60;;;;;;;18.30;64.38;93429.16;4976009;28;20560;-79
2021/10/22 11:03:28;;;;;;;4.72;2.80;;;;;;;18.43;62.90;93427.94;4976594;28;20057;-77
2021/10/22 11:06:06;;;;;;;8.30;3.90;;;;;;;18.56;64.71;93418.88;4975920;28;20058;-79
2021/10/22 11:08:49;;;;;;;7.80;4.70;;;;;;;18.89;68.81;93410.91;4975936;28;20042;-79
2021/10/22 11:11:34;;;;;;;5.68;3.20;;;;;;;19.07;64.44;93412.31;4975626;28;20141;-78
2021/10/22 11:14:19;;;;;;;7.75;4.00;;;;;;;19.19;65.63;93412.03;4961190;28;20057;-80
2021/10/22 11:16:52;;;;;;;6.07;3.45;;;;;;;19.37;65.52;93410.78;4969122;28;20106;-80
2021/10/22 11:19:25;;;;;;;5.88;3.65;;;;;;;19.43;63.24;93396.72;4967585;28;20090;-81
2021/10/22 11:22:09;;;;;;;10.25;3.28;;;;;;;19.33;61.38;93407.91;4968626;28;20051;-81
2021/10/22 11:24:37;;;;;;;6.10;3.08;;;;;;;19.44;62.81;93406.06;4970001;28;20620;-81
2021/10/22 11:27:06;;;;;;;5.70;3.30;;;;;;;18.98;62.60;93317.50;4970449;28;20062;-80
2021/10/22 11:29:35;;;;;;;5.72;3.45;;;;;;;19.21;61.10;93395.13;4970553;28;20046;-80
2021/10/22 11:32:04;;;;;;;5.55;3.28;;;;;;;18.48;62.53;93403.75;4970379;28;20550;-81
2021/10/22 11:34:35;;;;;;;6.88;3.65;;;;;;;18.61;63.55;93402.50;4970132;28;20132;-81
2021/10/22 11:37:05;;;;;;;5.88;3.30;;;;;;;18.50;63.40;93397.28;4970264;28;20491;-80
2021/10/22 11:39:36;;;;;;;7.30;3.08;;;;;;;18.12;63.12;93407.75;4970225;28;20586;-80
2021/10/22 11:42:11;;;;;;;6.47;3.38;;;;;;;18.09;65.27;93400.44;4970427;28;20722;-81
2021/10/22 11:44:39;;;;;;;6.00;4.32;;;;;;;18.03;67.64;93398.84;4970141;28;20072;-81
2021/10/22 11:47:09;;;;;;;4.97;3.13;;;;;;;18.22;61.51;93408.81;4970233;28;20105;-81
2021/10/22 11:49:38;;;;;;;5.05;2.90;;;;;;;18.36;65.97;93390.94;4970088;28;20513;-81
2021/10/22 11:52:08;;;;;;;4.65;2.63;;;;;;;18.54;64.06;93376.72;4970160;28;20422;-81
2021/10/22 11:54:35;;;;;;;3.65;2.60;;;;;;;18.50;59.50;93386.88;4970237;28;21233;-81
2021/10/22 11:57:12;;;;;;;5.43;2.55;;;;;;;17.97;63.49;93387.59;4970342;28;20055;-81
2021/10/22 11:59:49;;;;;;;3.40;2.30;;;;;;;17.93;61.71;93391.75;4970073;28;20554;-81
2021/10/22 12:02:16;;;;;;;4.85;2.63;;;;;;;17.68;65.47;93371.59;4970243;28;20051;-81
2021/10/22 12:04:45;;;;;;;4.80;2.35;;;;;;;17.80;62.64;93384.38;4970136;28;20050;-81
2021/10/22 12:07:12;;;;;;;6.63;3.03;;;;;;;17.77;66.15;93383.06;4970833;28;20466;-81
2021/10/22 12:09:41;;;;;;;5.78;3.42;;;;;;;17.82;65.99;93393.50;4969923;28;20055;-81
2021/10/22 12:12:10;;;;;;;4.80;3.10;;;;;;;18.01;67.92;93390.50;4970033;28;20513;-81
2021/10/22 12:14:40;;;;;;;5.95;3.17;;;;;;;17.95;65.03;93386.31;4970084;28;20134;-81
2021/10/22 12:17:09;;;;;;;8.00;4.38;;;;;;;18.22;64.98;93383.63;4969748;28;20067;-81
2021/10/22 12:19:36;;;;;;;7.68;3.03;;;;;;;18.06;63.38;93384.56;4969895;28;20542;-81
2021/10/22 12:22:04;;;;;;;4.93;3.17;;;;;;;18.11;65.64;93375.00;4970141;28;20744;-81
2021/10/22 12:24:46;;;;;;;5.78;2.92;;;;;;;18.15;64.62;93376.03;4970125;28;20880;-81
2021/10/22 12:27:14;;;;;;;6.03;3.25;;;;;;;17.93;63.87;93378.78;4971973;28;20054;-81
2021/10/22 12:29:55;;;;;;;5.53;3.50;;;;;;;17.98;64.39;93367.59;4973209;28;20463;-81
2021/10/22 12:32:37;;;;;;;6.50;3.42;;;;;;;17.93;64.28;93349.38;4973180;28;20054;-82
2021/10/22 12:35:06;;;;;;;8.40;3.85;;;;;;;18.11;62.88;93358.63;4973346;28;20539;-81
2021/10/22 12:37:37;;;;;;;6.53;3.65;;;;;;;18.33;67.23;93368.84;4974681;28;20101;-81
2021/10/22 12:40:29;;;;;;;6.00;3.33;;;;;;;18.27;64.46;93341.25;4978411;28;20050;-81
2021/10/22 12:43:20;;;;;;;7.05;3.95;;;;;;;18.45;69.35;93360.84;4955632;28;20125;-81
2021/10/22 12:45:50;;;;;;;6.75;3.60;;;;;;;18.60;68.33;93359.31;4978384;28;20062;-81
2021/10/22 12:48:19;;;;;;;7.25;3.85;;;;;;;18.70;68.19;93348.94;4978579;28;20388;-81
2021/10/22 12:50:47;;;;;;;5.97;3.55;;;;;;;18.85;63.58;93352.63;4978737;28;20061;-81
2021/10/22 12:53:19;;;;;;;7.05;4.03;;;;;;;18.82;63.09;93341.69;4978356;28;20562;-81
2021/10/22 12:55:47;;;;;;;9.05;4.28;;;;;;;18.90;64.72;93348.22;4977939;28;20522;-81
2021/10/22 12:58:19;;;;;;;6.60;4.10;;;;;;;19.01;67.23;93346.38;4978106;28;20051;-81
2021/10/22 13:01:04;;;;;;;5.25;3.15;;;;;;;19.12;60.99;93362.06;4978476;28;20050;-81
2021/10/22 13:03:31;;;;;;;5.83;3.37;;;;;;;19.16;62.81;93350.84;4978731;28;20039;-81
2021/10/22 13:06:08;;;;;;;4.82;2.90;;;;;;;19.22;63.25;93351.66;4979513;28;20047;-82
2021/10/22 13:08:44;;;;;;;5.55;3.47;;;;;;;19.19;61.01;93334.72;4979243;28;20047;-82
2021/10/22 13:11:25;;;;;;;9.40;4.00;;;;;;;19.18;62.52;93354.00;4978635;28;20039;-81
2021/10/22 13:22:04;;;;;;;6.70;3.00;;;;;;;18.70;60.85;93354.13;4978076;28;20057;-79
2021/10/22 13:24:32;;;;;;;5.60;3.28;;;;;;;18.57;63.16;93334.59;4977869;28;20046;-79
2021/10/22 13:27:00;;;;;;;16.50;8.95;;;;;;;18.63;62.34;93356.19;4977762;28;20075;-79
2021/10/22 13:29:27;;;;;;;10.00;5.80;;;;;;;18.68;64.28;93351.81;4977422;28;20976;-79
2021/10/22 13:31:53;;;;;;;7.40;4.43;;;;;;;18.70;66.21;93352.31;4975281;28;20490;-79
2021/10/22 13:34:20;;;;;;;6.97;3.90;;;;;;;18.81;61.43;93363.56;4965415;28;20117;-79
2021/10/22 13:36:47;;;;;;;14.63;7.32;;;;;;;18.48;60.56;93365.53;4975180;28;20066;-79
2021/10/22 13:39:14;;;;;;;8.68;5.10;;;;;;;18.53;61.37;93362.16;4969923;28;20038;-79
2021/10/22 13:41:43;;;;;;;11.25;4.97;;;;;;;18.67;65.12;93363.25;4975540;28;20047;-79
2021/10/22 13:44:11;;;;;;;7.82;4.68;;;;;;;18.75;66.53;93358.59;4976721;28;20049;-79
2021/10/22 13:46:39;;;;;;;11.60;4.60;;;;;;;18.83;66.10;93364.06;4977159;28;20490;-79
2021/10/22 13:49:06;;;;;;;10.57;5.03;;;;;;;18.92;67.87;93363.53;4977034;28;20516;-79
2021/10/22 13:51:34;;;;;;;9.93;6.00;;;;;;;19.01;67.53;93362.00;4977682;28;20062;-79
2021/10/22 13:54:01;;;;;;;10.82;5.47;;;;;;;19.08;66.79;93364.41;4977365;28;20402;-79
2021/10/22 13:56:28;;;;;;;10.65;4.85;;;;;;;19.06;64.91;93366.47;4977137;28;21204;-78
2021/10/22 13:58:56;;;;;;;7.40;4.90;;;;;;;19.12;68.31;93367.25;4976962;28;20046;-79
2021/10/22 14:01:23;;;;;;;9.30;4.20;;;;;;;19.14;67.67;93365.97;4977005;28;20050;-79
2021/10/22 14:03:50;;;;;;;8.05;3.90;;;;;;;19.12;66.97;93357.59;4977489;28;20422;-79
2021/10/22 14:06:16;;;;;;;12.07;4.78;;;;;;;19.07;65.36;93355.03;4976806;28;20414;-79
2021/10/22 14:08:43;;;;;;;7.97;4.80;;;;;;;19.12;67.54;93357.59;4976801;28;20054;-79
2021/10/22 14:11:14;;;;;;;8.15;4.90;;;;;;;19.19;69.00;93365.97;4974634;28;20097;-79
2021/10/22 14:13:47;;;;;;;8.27;5.60;;;;;;;19.18;69.01;93374.81;4970579;28;20059;-79
2021/10/22 14:16:28;;;;;;;9.43;6.32;;;;;;;19.16;69.40;93368.31;4973112;28;20050;-79
2021/10/22 14:29:56;;;;;;;56.05;28.90;;;;;;;18.94;69.66;93354.44;4967746;28;20089;-79
2021/10/22 14:32:25;;;;;;;29.35;15.80;;;;;;;18.99;69.07;93365.91;4973646;28;20110;-79
2021/10/22 14:34:52;;;;;;;19.23;11.80;;;;;;;18.94;69.91;93364.09;4976400;28;20054;-79
2021/10/22 14:37:19;;;;;;;18.98;11.43;;;;;;;18.91;70.43;93364.59;4976181;28;20039;-79
2021/10/22 14:39:46;;;;;;;16.48;9.38;;;;;;;18.86;70.47;93354.97;4977255;28;20057;-79
2021/10/22 14:42:13;;;;;;;18.02;10.05;;;;;;;18.89;70.81;93361.47;4977121;28;20121;-80
2021/10/22 14:44:42;;;;;;;58.00;24.85;;;;;;;18.84;71.01;93359.63;4976496;28;20077;-79
2021/10/22 14:47:16;;;;;;;50.15;21.95;;;;;;;18.79;71.61;93352.59;4976688;28;20101;-79
2021/10/22 14:49:46;;;;;;;44.97;19.98;;;;;;;18.72;71.83;93353.88;4976444;28;20135;-78
2021/10/22 14:52:22;;;;;;;29.50;14.63;;;;;;;18.69;72.00;93365.56;4975919;28;20133;-78
2021/10/22 14:54:52;;;;;;;22.83;11.70;;;;;;;18.61;72.19;93358.28;4976272;28;20049;-79
2021/10/22 14:57:19;;;;;;;17.40;9.60;;;;;;;18.49;72.53;93356.69;4976534;28;20081;-79
2021/10/22 14:59:46;;;;;;;41.08;21.88;;;;;;;18.42;72.88;93354.31;4976192;28;20580;-79
2021/10/22 15:02:15;;;;;;;43.78;26.00;;;;;;;18.34;73.21;93360.03;4976013;28;20518;-79
2021/10/22 15:04:45;;;;;;;87.53;42.50;;;;;;;18.25;73.67;93356.34;4976595;28;20074;-78
2021/10/22 15:07:12;;;;;;;66.75;33.88;;;;;;;18.10;74.95;93350.03;4976244;28;20061;-78
2021/10/22 15:09:39;;;;;;;36.13;21.08;;;;;;;18.05;75.14;93357.00;4976279;28;20050;-78
2021/10/22 15:12:07;;;;;;;31.05;16.88;;;;;;;18.00;75.86;93355.13;4976023;28;20057;-78
2021/10/22 15:14:34;;;;;;;23.38;12.95;;;;;;;17.93;75.83;93364.97;4975854;28;20731;-78
2021/10/22 15:17:01;;;;;;;65.68;35.40;;;;;;;17.80;75.58;93351.41;4976317;28;20422;-79
2021/10/22 15:19:28;;;;;;;76.15;44.25;;;;;;;17.74;76.83;93353.19;4975483;28;20053;-78
2021/10/22 15:21:56;;;;;;;69.25;37.10;;;;;;;17.61;76.69;93348.44;4975808;28;20514;-79
2021/10/22 15:24:23;;;;;;;56.85;31.63;;;;;;;17.65;77.01;93366.88;4975931;28;20050;-78
2021/10/22 15:26:49;;;;;;;50.83;27.10;;;;;;;17.47;77.70;93353.28;4975905;28;20051;-78
2021/10/22 15:29:16;;;;;;;48.25;24.98;;;;;;;17.46;78.06;93372.47;4975761;28;20515;-78
2021/10/22 15:31:43;;;;;;;42.33;21.65;;;;;;;17.39;78.44;93364.91;4976244;28;20050;-78
2021/10/22 15:34:10;;;;;;;34.38;18.90;;;;;;;17.33;78.62;93364.09;4975333;28;20521;-78
2021/10/22 15:36:37;;;;;;;31.88;18.30;;;;;;;17.26;78.81;93367.91;4975945;28;20113;-78
2021/10/22 15:39:06;;;;;;;37.92;19.15;;;;;;;17.13;78.71;93362.06;4975388;28;20527;-78
2021/10/22 15:41:32;;;;;;;37.15;19.40;;;;;;;16.93;79.53;93342.69;4975611;28;20058;-78
2021/10/22 15:44:00;;;;;;;33.95;18.17;;;;;;;17.02;79.52;93371.56;4975886;28;20061;-79
2021/10/22 15:46:26;;;;;;;34.20;18.50;;;;;;;16.95;79.58;93371.75;4974422;28;20050;-79
2021/10/22 15:48:53;;;;;;;41.22;20.83;;;;;;;16.88;80.66;93375.56;4975453;28;20133;-79
2021/10/22 15:51:20;;;;;;;88.88;40.90;;;;;;;16.71;82.48;93366.06;4976253;28;20155;-78
2021/10/22 15:53:47;;;;;;;127.10;57.55;;;;;;;16.70;82.74;93374.88;4976201;28;20050;-79
2021/10/22 15:56:15;;;;;;;76.80;35.38;;;;;;;16.56;83.61;93367.50;4976628;28;20050;-78
2021/10/22 15:58:42;;;;;;;63.92;33.58;;;;;;;16.55;84.45;93381.47;4976152;28;20062;-78
2021/10/22 16:01:09;;;;;;;54.80;30.40;;;;;;;16.43;84.87;93383.41;4976386;28;20054;-78
2021/10/22 16:03:36;;;;;;;57.05;30.83;;;;;;;16.32;86.29;93385.09;4979282;28;20043;-78
2021/10/22 16:06:10;;;;;;;53.42;31.52;;;;;;;16.21;86.83;93391.97;4979635;28;20573;-78
2021/10/22 16:08:43;;;;;;;54.20;31.30;;;;;;;16.10;87.53;93395.47;4976698;28;20408;-79
2021/10/22 16:11:30;;;;;;;43.17;26.25;;;;;;;15.99;88.31;93397.91;4976440;28;20069;-79
2021/10/22 16:16:57;;;;;;;31.00;20.35;;;;;;;15.67;90.06;93389.88;4978143;28;20182;-79
2021/10/22 16:19:24;;;;;;;33.97;19.67;;;;;;;15.66;90.87;93401.28;4978795;28;20047;-79
2021/10/22 16:21:51;;;;;;;31.45;17.58;;;;;;;15.63;91.34;93410.28;4979265;28;20059;-79
2021/10/22 16:24:18;;;;;;;28.08;17.85;;;;;;;15.59;91.75;93407.41;4978717;28;20057;-79
2021/10/22 16:26:45;;;;;;;26.05;17.33;;;;;;;15.52;91.94;93409.38;4979546;28;20486;-79
2021/10/22 16:29:13;;;;;;;29.95;18.73;;;;;;;15.43;92.36;93403.81;4979768;28;20461;-79
2021/10/22 16:31:40;;;;;;;29.17;18.85;;;;;;;15.41;92.86;93418.75;4979145;28;20054;-79
2021/10/22 16:36:56;;;;;;;39.05;22.75;;;;;;;15.33;93.76;93416.56;4897347;28;20057;-79
2021/10/22 16:39:23;;;;;;;39.05;23.25;;;;;;;15.26;94.03;93421.88;4978761;28;20061;-79
2021/10/22 16:41:51;;;;;;;39.58;23.67;;;;;;;15.19;94.42;93422.03;4978110;28;20046;-79
2021/10/22 16:44:20;;;;;;;51.70;31.90;;;;;;;15.17;94.30;93433.63;4977951;28;20490;-79
2021/10/22 16:46:47;;;;;;;60.47;34.97;;;;;;;15.10;94.66;93436.38;4978177;28;20051;-79
2021/10/22 16:49:13;;;;;;;123.07;63.45;;;;;;;15.00;95.08;93438.78;4978714;28;20066;-79
2021/10/22 16:51:40;;;;;;;74.72;42.28;;;;;;;14.94;94.66;93453.41;4978414;28;20101;-79
2021/10/22 16:54:07;;;;;;;56.55;34.60;;;;;;;14.86;94.70;93453.78;4978082;28;20046;-79
2021/10/22 16:56:35;;;;;;;44.38;26.90;;;;;;;14.70;94.87;93441.31;4978585;28;20140;-79
2021/10/22 16:59:02;;;;;;;38.17;24.85;;;;;;;14.69;95.12;93442.31;4978337;28;20054;-81
2021/10/22 17:01:30;;;;;;;33.03;22.63;;;;;;;14.68;95.23;93455.50;4978690;28;20104;-80
2021/10/22 17:03:57;;;;;;;24.98;16.92;;;;;;;14.56;95.44;93450.34;4978579;28;20058;-80
2021/10/22 17:06:24;;;;;;;19.00;12.65;;;;;;;14.40;95.55;93442.25;4978436;28;20053;-80